sensor_id;sensor_type;location;lat;lon;timestamp;P1;durP1;ratioP1;P2;durP2;ratioP2
3443;SDS011;1736;52.068;6.968;2023-05-31T00:00:01;8.97;;;6.43;;
3443;SDS011;1736;52.068;6.968;2023-05-31T00:02:28;9.93;;;6.70;;
3443;SDS011;1736;52.068;6.968;2023-05-31T00:04:55;10.70;;;7.10;;
3443;SDS011;1736;52.068;6.968;2023-05-31T00:07:21;9.43;;;7.07;;
3443;SDS011;1736;52.068;6.968;2023-05-31T00:09:49;7.90;;;6.43;;
3443;SDS011;1736;52.068;6.968;2023-05-31T00:12:16;11.30;;;6.70;;
3443;SDS011;1736;52.068;6.968;2023-05-31T00:14:42;12.40;;;7.00;;
3443;SDS011;1736;52.068;6.968;2023-05-31T00:17:09;12.03;;;7.27;;
3443;SDS011;1736;52.068;6.968;2023-05-31T00:19:35;8.93;;;6.93;;
3443;SDS011;1736;52.068;6.968;2023-05-31T00:22:08;10.80;;;7.20;;
3443;SDS011;1736;52.068;6.968;2023-05-31T00:24:35;10.47;;;7.60;;
3443;SDS011;1736;52.068;6.968;2023-05-31T00:27:03;11.67;;;6.90;;
3443;SDS011;1736;52.068;6.968;2023-05-31T00:29:31;14.40;;;7.60;;
3443;SDS011;1736;52.068;6.968;2023-05-31T00:31:57;11.20;;;7.70;;
3443;SDS011;1736;52.068;6.968;2023-05-31T00:34:24;16.70;;;7.83;;
3443;SDS011;1736;52.068;6.968;2023-05-31T00:36:50;10.90;;;7.20;;
3443;SDS011;1736;52.068;6.968;2023-05-31T00:39:17;12.47;;;7.87;;
3443;SDS011;1736;52.068;6.968;2023-05-31T00:41:43;12.40;;;8.00;;
3443;SDS011;1736;52.068;6.968;2023-05-31T00:44:11;11.77;;;7.50;;
3443;SDS011;1736;52.068;6.968;2023-05-31T00:46:38;11.30;;;7.70;;
3443;SDS011;1736;52.068;6.968;2023-05-31T00:49:06;10.93;;;7.80;;
3443;SDS011;1736;52.068;6.968;2023-05-31T00:51:34;11.23;;;7.30;;
3443;SDS011;1736;52.068;6.968;2023-05-31T00:54:01;12.87;;;8.23;;
3443;SDS011;1736;52.068;6.968;2023-05-31T00:56:29;11.40;;;8.10;;
3443;SDS011;1736;52.068;6.968;2023-05-31T00:58:56;11.07;;;7.63;;
3443;SDS011;1736;52.068;6.968;2023-05-31T01:01:24;10.50;;;7.57;;
3443;SDS011;1736;52.068;6.968;2023-05-31T01:03:52;11.93;;;7.40;;
3443;SDS011;1736;52.068;6.968;2023-05-31T01:06:20;11.70;;;7.87;;
3443;SDS011;1736;52.068;6.968;2023-05-31T01:08:48;12.17;;;7.50;;
3443;SDS011;1736;52.068;6.968;2023-05-31T01:11:17;13.33;;;8.37;;
3443;SDS011;1736;52.068;6.968;2023-05-31T01:14:01;10.40;;;7.63;;
3443;SDS011;1736;52.068;6.968;2023-05-31T01:16:36;13.43;;;8.80;;
3443;SDS011;1736;52.068;6.968;2023-05-31T01:19:09;13.93;;;8.80;;
3443;SDS011;1736;52.068;6.968;2023-05-31T01:21:48;11.77;;;8.40;;
3443;SDS011;1736;52.068;6.968;2023-05-31T01:24:22;14.63;;;7.60;;
3443;SDS011;1736;52.068;6.968;2023-05-31T01:26:54;15.00;;;9.10;;
3443;SDS011;1736;52.068;6.968;2023-05-31T01:29:26;16.10;;;8.90;;
3443;SDS011;1736;52.068;6.968;2023-05-31T01:31:54;12.90;;;9.10;;
3443;SDS011;1736;52.068;6.968;2023-05-31T01:34:23;16.63;;;8.90;;
3443;SDS011;1736;52.068;6.968;2023-05-31T01:36:50;16.50;;;9.07;;
3443;SDS011;1736;52.068;6.968;2023-05-31T01:39:16;16.90;;;9.50;;
3443;SDS011;1736;52.068;6.968;2023-05-31T01:41:44;16.53;;;9.70;;
3443;SDS011;1736;52.068;6.968;2023-05-31T01:44:15;17.00;;;9.80;;
3443;SDS011;1736;52.068;6.968;2023-05-31T01:46:43;15.00;;;9.37;;
3443;SDS011;1736;52.068;6.968;2023-05-31T01:49:11;18.97;;;10.60;;
3443;SDS011;1736;52.068;6.968;2023-05-31T01:51:39;24.23;;;10.23;;
3443;SDS011;1736;52.068;6.968;2023-05-31T01:54:07;14.83;;;9.90;;
3443;SDS011;1736;52.068;6.968;2023-05-31T01:56:34;15.23;;;9.27;;
3443;SDS011;1736;52.068;6.968;2023-05-31T01:59:03;20.17;;;10.00;;
3443;SDS011;1736;52.068;6.968;2023-05-31T02:01:32;19.87;;;10.17;;
3443;SDS011;1736;52.068;6.968;2023-05-31T02:03:59;16.03;;;9.83;;
3443;SDS011;1736;52.068;6.968;2023-05-31T02:06:26;16.00;;;9.90;;
3443;SDS011;1736;52.068;6.968;2023-05-31T02:08:53;17.50;;;10.20;;
3443;SDS011;1736;52.068;6.968;2023-05-31T02:11:19;18.37;;;10.40;;
3443;SDS011;1736;52.068;6.968;2023-05-31T02:13:47;19.53;;;10.33;;
3443;SDS011;1736;52.068;6.968;2023-05-31T02:16:13;18.60;;;10.70;;
3443;SDS011;1736;52.068;6.968;2023-05-31T02:18:42;18.77;;;9.87;;
3443;SDS011;1736;52.068;6.968;2023-05-31T02:21:09;22.07;;;11.63;;
3443;SDS011;1736;52.068;6.968;2023-05-31T02:23:36;18.13;;;10.13;;
3443;SDS011;1736;52.068;6.968;2023-05-31T02:26:02;17.67;;;10.10;;
3443;SDS011;1736;52.068;6.968;2023-05-31T02:28:30;17.60;;;10.00;;
3443;SDS011;1736;52.068;6.968;2023-05-31T02:30:56;18.37;;;11.07;;
3443;SDS011;1736;52.068;6.968;2023-05-31T02:33:25;20.23;;;11.57;;
3443;SDS011;1736;52.068;6.968;2023-05-31T02:35:53;18.13;;;10.30;;
3443;SDS011;1736;52.068;6.968;2023-05-31T02:38:22;20.73;;;11.90;;
3443;SDS011;1736;52.068;6.968;2023-05-31T02:40:48;21.90;;;10.70;;
3443;SDS011;1736;52.068;6.968;2023-05-31T02:43:15;27.47;;;11.47;;
3443;SDS011;1736;52.068;6.968;2023-05-31T02:45:42;21.50;;;10.80;;
3443;SDS011;1736;52.068;6.968;2023-05-31T02:48:09;24.20;;;10.40;;
3443;SDS011;1736;52.068;6.968;2023-05-31T02:50:35;23.57;;;10.80;;
3443;SDS011;1736;52.068;6.968;2023-05-31T02:53:03;20.30;;;10.27;;
3443;SDS011;1736;52.068;6.968;2023-05-31T02:55:30;23.90;;;11.47;;
3443;SDS011;1736;52.068;6.968;2023-05-31T02:57:57;23.60;;;11.27;;
3443;SDS011;1736;52.068;6.968;2023-05-31T03:00:23;20.40;;;11.13;;
3443;SDS011;1736;52.068;6.968;2023-05-31T03:02:50;21.20;;;11.00;;
3443;SDS011;1736;52.068;6.968;2023-05-31T03:05:17;24.93;;;11.03;;
3443;SDS011;1736;52.068;6.968;2023-05-31T03:07:43;23.63;;;11.47;;
3443;SDS011;1736;52.068;6.968;2023-05-31T03:10:11;21.40;;;10.57;;
3443;SDS011;1736;52.068;6.968;2023-05-31T03:12:38;25.10;;;12.63;;
3443;SDS011;1736;52.068;6.968;2023-05-31T03:15:06;18.30;;;10.83;;
3443;SDS011;1736;52.068;6.968;2023-05-31T03:17:33;22.43;;;11.43;;
3443;SDS011;1736;52.068;6.968;2023-05-31T03:20:02;21.83;;;12.50;;
3443;SDS011;1736;52.068;6.968;2023-05-31T03:22:33;21.70;;;11.37;;
3443;SDS011;1736;52.068;6.968;2023-05-31T03:25:00;22.93;;;11.30;;
3443;SDS011;1736;52.068;6.968;2023-05-31T03:27:28;26.00;;;10.80;;
3443;SDS011;1736;52.068;6.968;2023-05-31T03:29:55;25.50;;;11.20;;
3443;SDS011;1736;52.068;6.968;2023-05-31T03:32:21;25.87;;;12.47;;
3443;SDS011;1736;52.068;6.968;2023-05-31T03:34:48;32.40;;;12.00;;
3443;SDS011;1736;52.068;6.968;2023-05-31T03:37:14;25.60;;;12.83;;
3443;SDS011;1736;52.068;6.968;2023-05-31T03:39:41;25.17;;;12.90;;
3443;SDS011;1736;52.068;6.968;2023-05-31T03:42:07;24.37;;;12.87;;
3443;SDS011;1736;52.068;6.968;2023-05-31T03:44:35;23.07;;;11.00;;
3443;SDS011;1736;52.068;6.968;2023-05-31T03:47:02;26.63;;;13.17;;
3443;SDS011;1736;52.068;6.968;2023-05-31T03:49:28;23.67;;;12.40;;
3443;SDS011;1736;52.068;6.968;2023-05-31T03:51:55;26.10;;;12.30;;
3443;SDS011;1736;52.068;6.968;2023-05-31T03:54:22;25.23;;;11.83;;
3443;SDS011;1736;52.068;6.968;2023-05-31T03:56:48;25.53;;;11.40;;
3443;SDS011;1736;52.068;6.968;2023-05-31T03:59:15;21.43;;;11.13;;
3443;SDS011;1736;52.068;6.968;2023-05-31T04:01:43;35.23;;;12.93;;
3443;SDS011;1736;52.068;6.968;2023-05-31T04:04:09;29.33;;;12.37;;
3443;SDS011;1736;52.068;6.968;2023-05-31T04:06:36;30.97;;;11.70;;
3443;SDS011;1736;52.068;6.968;2023-05-31T04:09:02;30.23;;;12.47;;
3443;SDS011;1736;52.068;6.968;2023-05-31T04:11:29;34.53;;;14.03;;
3443;SDS011;1736;52.068;6.968;2023-05-31T04:13:56;26.73;;;12.27;;
3443;SDS011;1736;52.068;6.968;2023-05-31T04:16:23;30.70;;;13.43;;
3443;SDS011;1736;52.068;6.968;2023-05-31T04:18:51;26.10;;;12.10;;
3443;SDS011;1736;52.068;6.968;2023-05-31T04:21:17;30.63;;;12.93;;
3443;SDS011;1736;52.068;6.968;2023-05-31T04:23:44;27.00;;;12.90;;
3443;SDS011;1736;52.068;6.968;2023-05-31T04:26:11;24.63;;;11.97;;
3443;SDS011;1736;52.068;6.968;2023-05-31T04:28:41;24.37;;;12.40;;
3443;SDS011;1736;52.068;6.968;2023-05-31T04:31:08;26.20;;;12.57;;
3443;SDS011;1736;52.068;6.968;2023-05-31T04:33:35;29.53;;;14.07;;
3443;SDS011;1736;52.068;6.968;2023-05-31T04:36:03;27.07;;;12.70;;
3443;SDS011;1736;52.068;6.968;2023-05-31T04:38:30;26.53;;;11.93;;
3443;SDS011;1736;52.068;6.968;2023-05-31T04:40:57;26.37;;;12.40;;
3443;SDS011;1736;52.068;6.968;2023-05-31T04:43:25;24.37;;;11.80;;
3443;SDS011;1736;52.068;6.968;2023-05-31T04:45:51;22.87;;;11.40;;
3443;SDS011;1736;52.068;6.968;2023-05-31T04:48:18;19.27;;;10.43;;
3443;SDS011;1736;52.068;6.968;2023-05-31T04:50:45;21.43;;;10.00;;
3443;SDS011;1736;52.068;6.968;2023-05-31T04:53:14;18.40;;;10.40;;
3443;SDS011;1736;52.068;6.968;2023-05-31T04:55:41;27.13;;;11.90;;
3443;SDS011;1736;52.068;6.968;2023-05-31T04:58:07;22.90;;;10.50;;
3443;SDS011;1736;52.068;6.968;2023-05-31T05:00:34;22.17;;;10.70;;
3443;SDS011;1736;52.068;6.968;2023-05-31T05:03:02;18.27;;;10.40;;
3443;SDS011;1736;52.068;6.968;2023-05-31T05:05:28;17.20;;;10.00;;
3443;SDS011;1736;52.068;6.968;2023-05-31T05:07:55;22.30;;;9.47;;
3443;SDS011;1736;52.068;6.968;2023-05-31T05:10:23;18.20;;;9.93;;
3443;SDS011;1736;52.068;6.968;2023-05-31T05:12:50;20.10;;;10.33;;
3443;SDS011;1736;52.068;6.968;2023-05-31T05:15:16;15.27;;;8.10;;
3443;SDS011;1736;52.068;6.968;2023-05-31T05:17:43;17.40;;;9.57;;
3443;SDS011;1736;52.068;6.968;2023-05-31T05:20:09;18.37;;;10.00;;
3443;SDS011;1736;52.068;6.968;2023-05-31T05:22:36;18.53;;;9.33;;
3443;SDS011;1736;52.068;6.968;2023-05-31T05:25:03;18.50;;;10.27;;
3443;SDS011;1736;52.068;6.968;2023-05-31T05:27:32;19.80;;;10.33;;
3443;SDS011;1736;52.068;6.968;2023-05-31T05:29:58;20.60;;;9.90;;
3443;SDS011;1736;52.068;6.968;2023-05-31T05:32:25;19.90;;;10.47;;
3443;SDS011;1736;52.068;6.968;2023-05-31T05:34:51;20.93;;;10.40;;
3443;SDS011;1736;52.068;6.968;2023-05-31T05:37:18;16.53;;;8.83;;
3443;SDS011;1736;52.068;6.968;2023-05-31T05:39:44;18.80;;;9.23;;
3443;SDS011;1736;52.068;6.968;2023-05-31T05:42:10;20.37;;;9.50;;
3443;SDS011;1736;52.068;6.968;2023-05-31T05:44:38;16.97;;;9.77;;
3443;SDS011;1736;52.068;6.968;2023-05-31T05:47:05;17.00;;;9.30;;
3443;SDS011;1736;52.068;6.968;2023-05-31T05:49:32;17.17;;;9.37;;
3443;SDS011;1736;52.068;6.968;2023-05-31T05:51:59;16.13;;;9.27;;
3443;SDS011;1736;52.068;6.968;2023-05-31T05:54:25;17.83;;;8.53;;
3443;SDS011;1736;52.068;6.968;2023-05-31T05:56:52;18.83;;;9.17;;
3443;SDS011;1736;52.068;6.968;2023-05-31T05:59:18;16.30;;;9.90;;
3443;SDS011;1736;52.068;6.968;2023-05-31T06:01:46;17.97;;;9.50;;
3443;SDS011;1736;52.068;6.968;2023-05-31T06:04:13;17.07;;;9.60;;
3443;SDS011;1736;52.068;6.968;2023-05-31T06:06:39;17.10;;;9.23;;
3443;SDS011;1736;52.068;6.968;2023-05-31T06:09:06;17.20;;;9.80;;
3443;SDS011;1736;52.068;6.968;2023-05-31T06:11:33;19.07;;;9.00;;
3443;SDS011;1736;52.068;6.968;2023-05-31T06:13:59;19.40;;;9.43;;
3443;SDS011;1736;52.068;6.968;2023-05-31T06:16:26;18.30;;;9.30;;
3443;SDS011;1736;52.068;6.968;2023-05-31T06:18:54;14.80;;;9.20;;
3443;SDS011;1736;52.068;6.968;2023-05-31T06:21:20;21.60;;;9.43;;
3443;SDS011;1736;52.068;6.968;2023-05-31T06:23:47;16.63;;;9.27;;
3443;SDS011;1736;52.068;6.968;2023-05-31T06:26:13;21.17;;;9.83;;
3443;SDS011;1736;52.068;6.968;2023-05-31T06:28:40;20.37;;;9.10;;
3443;SDS011;1736;52.068;6.968;2023-05-31T06:31:06;18.07;;;8.73;;
3443;SDS011;1736;52.068;6.968;2023-05-31T06:33:34;14.87;;;8.20;;
3443;SDS011;1736;52.068;6.968;2023-05-31T06:36:02;15.27;;;8.83;;
3443;SDS011;1736;52.068;6.968;2023-05-31T06:38:29;17.40;;;9.17;;
3443;SDS011;1736;52.068;6.968;2023-05-31T06:40:55;14.33;;;8.80;;
3443;SDS011;1736;52.068;6.968;2023-05-31T06:43:22;14.93;;;8.40;;
3443;SDS011;1736;52.068;6.968;2023-05-31T06:45:49;13.37;;;7.73;;
3443;SDS011;1736;52.068;6.968;2023-05-31T06:48:16;17.53;;;8.93;;
3443;SDS011;1736;52.068;6.968;2023-05-31T06:50:43;16.40;;;8.10;;
3443;SDS011;1736;52.068;6.968;2023-05-31T06:53:11;14.17;;;8.40;;
3443;SDS011;1736;52.068;6.968;2023-05-31T06:55:38;14.30;;;9.10;;
3443;SDS011;1736;52.068;6.968;2023-05-31T06:58:04;14.37;;;7.87;;
3443;SDS011;1736;52.068;6.968;2023-05-31T07:00:31;13.17;;;8.60;;
3443;SDS011;1736;52.068;6.968;2023-05-31T07:02:57;15.47;;;8.10;;
3443;SDS011;1736;52.068;6.968;2023-05-31T07:05:24;17.80;;;8.60;;
3443;SDS011;1736;52.068;6.968;2023-05-31T07:07:50;20.70;;;8.17;;
3443;SDS011;1736;52.068;6.968;2023-05-31T07:10:18;14.87;;;7.93;;
3443;SDS011;1736;52.068;6.968;2023-05-31T07:12:45;17.20;;;7.90;;
3443;SDS011;1736;52.068;6.968;2023-05-31T07:15:18;13.13;;;8.40;;
3443;SDS011;1736;52.068;6.968;2023-05-31T07:17:45;18.07;;;9.20;;
3443;SDS011;1736;52.068;6.968;2023-05-31T07:20:11;14.00;;;8.83;;
3443;SDS011;1736;52.068;6.968;2023-05-31T07:22:38;14.23;;;8.00;;
3443;SDS011;1736;52.068;6.968;2023-05-31T07:25:05;16.47;;;7.67;;
3443;SDS011;1736;52.068;6.968;2023-05-31T07:27:33;16.47;;;8.73;;
3443;SDS011;1736;52.068;6.968;2023-05-31T07:30:00;13.33;;;7.43;;
3443;SDS011;1736;52.068;6.968;2023-05-31T07:32:27;14.97;;;8.00;;
3443;SDS011;1736;52.068;6.968;2023-05-31T07:34:53;22.00;;;8.77;;
3443;SDS011;1736;52.068;6.968;2023-05-31T07:37:20;15.90;;;8.10;;
3443;SDS011;1736;52.068;6.968;2023-05-31T07:39:46;14.80;;;8.10;;
3443;SDS011;1736;52.068;6.968;2023-05-31T07:42:13;15.60;;;7.27;;
3443;SDS011;1736;52.068;6.968;2023-05-31T07:44:40;15.33;;;8.57;;
3443;SDS011;1736;52.068;6.968;2023-05-31T07:47:07;12.23;;;7.03;;
3443;SDS011;1736;52.068;6.968;2023-05-31T07:49:34;16.50;;;8.13;;
3443;SDS011;1736;52.068;6.968;2023-05-31T07:52:00;15.63;;;8.40;;
3443;SDS011;1736;52.068;6.968;2023-05-31T07:54:27;12.80;;;7.30;;
3443;SDS011;1736;52.068;6.968;2023-05-31T07:56:53;14.83;;;8.30;;
3443;SDS011;1736;52.068;6.968;2023-05-31T07:59:20;15.37;;;8.00;;
3443;SDS011;1736;52.068;6.968;2023-05-31T08:01:48;16.10;;;7.33;;
3443;SDS011;1736;52.068;6.968;2023-05-31T08:04:14;12.57;;;8.00;;
3443;SDS011;1736;52.068;6.968;2023-05-31T08:06:41;13.07;;;7.93;;
3443;SDS011;1736;52.068;6.968;2023-05-31T08:09:08;12.73;;;6.63;;
3443;SDS011;1736;52.068;6.968;2023-05-31T08:11:35;16.57;;;7.77;;
3443;SDS011;1736;52.068;6.968;2023-05-31T08:14:03;16.60;;;7.30;;
3443;SDS011;1736;52.068;6.968;2023-05-31T08:16:30;15.03;;;7.70;;
3443;SDS011;1736;52.068;6.968;2023-05-31T08:18:59;14.50;;;8.17;;
3443;SDS011;1736;52.068;6.968;2023-05-31T08:21:25;13.93;;;6.97;;
3443;SDS011;1736;52.068;6.968;2023-05-31T08:23:53;11.27;;;6.60;;
3443;SDS011;1736;52.068;6.968;2023-05-31T08:26:20;12.53;;;6.80;;
3443;SDS011;1736;52.068;6.968;2023-05-31T08:28:47;13.67;;;7.57;;
3443;SDS011;1736;52.068;6.968;2023-05-31T08:31:13;15.33;;;7.83;;
3443;SDS011;1736;52.068;6.968;2023-05-31T08:33:49;15.70;;;7.87;;
3443;SDS011;1736;52.068;6.968;2023-05-31T08:36:20;14.90;;;6.90;;
3443;SDS011;1736;52.068;6.968;2023-05-31T08:38:46;13.97;;;7.00;;
3443;SDS011;1736;52.068;6.968;2023-05-31T08:41:13;20.73;;;6.73;;
3443;SDS011;1736;52.068;6.968;2023-05-31T08:43:40;16.13;;;7.07;;
3443;SDS011;1736;52.068;6.968;2023-05-31T08:46:07;10.10;;;6.40;;
3443;SDS011;1736;52.068;6.968;2023-05-31T08:48:35;11.47;;;6.43;;
3443;SDS011;1736;52.068;6.968;2023-05-31T08:51:06;12.60;;;5.70;;
3443;SDS011;1736;52.068;6.968;2023-05-31T08:53:35;13.80;;;6.00;;
3443;SDS011;1736;52.068;6.968;2023-05-31T08:56:03;14.20;;;5.40;;
3443;SDS011;1736;52.068;6.968;2023-05-31T08:58:30;11.67;;;5.80;;
3443;SDS011;1736;52.068;6.968;2023-05-31T09:00:57;16.40;;;6.00;;
3443;SDS011;1736;52.068;6.968;2023-05-31T09:03:31;11.00;;;5.63;;
3443;SDS011;1736;52.068;6.968;2023-05-31T09:05:58;17.63;;;6.50;;
3443;SDS011;1736;52.068;6.968;2023-05-31T09:08:25;8.73;;;5.67;;
3443;SDS011;1736;52.068;6.968;2023-05-31T09:10:53;13.60;;;6.57;;
3443;SDS011;1736;52.068;6.968;2023-05-31T09:13:19;10.53;;;6.10;;
3443;SDS011;1736;52.068;6.968;2023-05-31T09:15:46;12.77;;;5.73;;
3443;SDS011;1736;52.068;6.968;2023-05-31T09:18:16;15.47;;;5.77;;
3443;SDS011;1736;52.068;6.968;2023-05-31T09:20:46;9.13;;;5.10;;
3443;SDS011;1736;52.068;6.968;2023-05-31T09:23:13;11.27;;;5.27;;
3443;SDS011;1736;52.068;6.968;2023-05-31T09:25:43;8.87;;;4.80;;
3443;SDS011;1736;52.068;6.968;2023-05-31T09:28:12;10.90;;;5.60;;
3443;SDS011;1736;52.068;6.968;2023-05-31T09:30:38;10.80;;;5.13;;
3443;SDS011;1736;52.068;6.968;2023-05-31T09:33:06;10.07;;;5.40;;
3443;SDS011;1736;52.068;6.968;2023-05-31T09:35:33;10.67;;;5.27;;
3443;SDS011;1736;52.068;6.968;2023-05-31T09:38:02;13.47;;;5.10;;
3443;SDS011;1736;52.068;6.968;2023-05-31T09:40:30;10.80;;;5.30;;
3443;SDS011;1736;52.068;6.968;2023-05-31T09:42:58;8.00;;;4.83;;
3443;SDS011;1736;52.068;6.968;2023-05-31T09:45:26;11.30;;;5.30;;
3443;SDS011;1736;52.068;6.968;2023-05-31T09:47:54;8.97;;;4.77;;
3443;SDS011;1736;52.068;6.968;2023-05-31T09:50:20;13.27;;;5.33;;
3443;SDS011;1736;52.068;6.968;2023-05-31T09:52:49;10.40;;;5.00;;
3443;SDS011;1736;52.068;6.968;2023-05-31T09:55:20;7.33;;;4.40;;
3443;SDS011;1736;52.068;6.968;2023-05-31T09:57:47;14.70;;;4.57;;
3443;SDS011;1736;52.068;6.968;2023-05-31T10:00:20;8.07;;;4.47;;
3443;SDS011;1736;52.068;6.968;2023-05-31T10:02:49;8.40;;;3.77;;
3443;SDS011;1736;52.068;6.968;2023-05-31T10:05:17;6.70;;;3.47;;
3443;SDS011;1736;52.068;6.968;2023-05-31T10:07:45;8.30;;;4.47;;
3443;SDS011;1736;52.068;6.968;2023-05-31T10:10:13;7.17;;;3.97;;
3443;SDS011;1736;52.068;6.968;2023-05-31T10:12:48;7.27;;;4.10;;
3443;SDS011;1736;52.068;6.968;2023-05-31T10:15:17;9.60;;;3.70;;
3443;SDS011;1736;52.068;6.968;2023-05-31T10:17:45;9.50;;;4.00;;
3443;SDS011;1736;52.068;6.968;2023-05-31T10:20:20;12.63;;;4.23;;
3443;SDS011;1736;52.068;6.968;2023-05-31T10:22:50;7.97;;;3.70;;
3443;SDS011;1736;52.068;6.968;2023-05-31T10:25:24;8.47;;;3.70;;
3443;SDS011;1736;52.068;6.968;2023-05-31T10:27:55;6.90;;;3.70;;
3443;SDS011;1736;52.068;6.968;2023-05-31T10:30:27;20.33;;;5.07;;
3443;SDS011;1736;52.068;6.968;2023-05-31T10:33:00;4.27;;;3.20;;
3443;SDS011;1736;52.068;6.968;2023-05-31T10:35:31;5.63;;;3.03;;
3443;SDS011;1736;52.068;6.968;2023-05-31T10:37:58;7.90;;;4.20;;
3443;SDS011;1736;52.068;6.968;2023-05-31T10:40:30;5.50;;;3.43;;
3443;SDS011;1736;52.068;6.968;2023-05-31T10:43:00;4.30;;;3.43;;
3443;SDS011;1736;52.068;6.968;2023-05-31T10:45:35;7.73;;;3.93;;
3443;SDS011;1736;52.068;6.968;2023-05-31T10:48:10;5.30;;;3.30;;
3443;SDS011;1736;52.068;6.968;2023-05-31T10:50:53;8.57;;;4.00;;
3443;SDS011;1736;52.068;6.968;2023-05-31T10:53:21;7.23;;;3.57;;
3443;SDS011;1736;52.068;6.968;2023-05-31T10:55:48;9.07;;;4.33;;
3443;SDS011;1736;52.068;6.968;2023-05-31T10:58:25;9.53;;;3.83;;
3443;SDS011;1736;52.068;6.968;2023-05-31T11:00:53;10.30;;;4.30;;
3443;SDS011;1736;52.068;6.968;2023-05-31T11:03:22;9.60;;;4.40;;
3443;SDS011;1736;52.068;6.968;2023-05-31T11:05:56;8.50;;;3.93;;
3443;SDS011;1736;52.068;6.968;2023-05-31T11:08:24;7.00;;;3.67;;
3443;SDS011;1736;52.068;6.968;2023-05-31T11:10:51;6.10;;;4.23;;
3443;SDS011;1736;52.068;6.968;2023-05-31T11:13:17;6.40;;;3.90;;
3443;SDS011;1736;52.068;6.968;2023-05-31T11:15:44;9.80;;;4.87;;
3443;SDS011;1736;52.068;6.968;2023-05-31T11:18:15;7.03;;;4.30;;
3443;SDS011;1736;52.068;6.968;2023-05-31T11:20:52;8.40;;;4.57;;
3443;SDS011;1736;52.068;6.968;2023-05-31T11:23:25;9.40;;;3.90;;
3443;SDS011;1736;52.068;6.968;2023-05-31T11:26:15;5.40;;;3.80;;
3443;SDS011;1736;52.068;6.968;2023-05-31T11:28:51;5.53;;;3.63;;
3443;SDS011;1736;52.068;6.968;2023-05-31T11:34:34;7.43;;;4.00;;
3443;SDS011;1736;52.068;6.968;2023-05-31T11:37:01;8.13;;;3.63;;
3443;SDS011;1736;52.068;6.968;2023-05-31T11:39:30;5.87;;;4.10;;
3443;SDS011;1736;52.068;6.968;2023-05-31T11:41:57;7.10;;;3.80;;
3443;SDS011;1736;52.068;6.968;2023-05-31T11:44:27;8.40;;;3.80;;
3443;SDS011;1736;52.068;6.968;2023-05-31T11:46:56;7.07;;;3.40;;
3443;SDS011;1736;52.068;6.968;2023-05-31T11:49:29;5.17;;;3.40;;
3443;SDS011;1736;52.068;6.968;2023-05-31T11:51:59;6.37;;;3.80;;
3443;SDS011;1736;52.068;6.968;2023-05-31T11:54:41;6.20;;;4.00;;
3443;SDS011;1736;52.068;6.968;2023-05-31T11:57:09;4.33;;;3.60;;
3443;SDS011;1736;52.068;6.968;2023-05-31T11:59:36;7.67;;;3.60;;
3443;SDS011;1736;52.068;6.968;2023-05-31T12:02:05;5.37;;;3.47;;
3443;SDS011;1736;52.068;6.968;2023-05-31T12:04:33;6.00;;;4.43;;
3443;SDS011;1736;52.068;6.968;2023-05-31T12:07:03;5.83;;;3.50;;
3443;SDS011;1736;52.068;6.968;2023-05-31T12:09:32;7.17;;;3.67;;
3443;SDS011;1736;52.068;6.968;2023-05-31T12:11:59;9.53;;;3.97;;
3443;SDS011;1736;52.068;6.968;2023-05-31T12:14:28;6.00;;;3.40;;
3443;SDS011;1736;52.068;6.968;2023-05-31T12:16:55;8.50;;;4.03;;
3443;SDS011;1736;52.068;6.968;2023-05-31T12:19:21;7.97;;;4.10;;
3443;SDS011;1736;52.068;6.968;2023-05-31T12:21:48;6.33;;;3.87;;
3443;SDS011;1736;52.068;6.968;2023-05-31T12:24:16;9.13;;;4.60;;
3443;SDS011;1736;52.068;6.968;2023-05-31T12:26:43;7.23;;;4.13;;
3443;SDS011;1736;52.068;6.968;2023-05-31T12:29:13;6.70;;;4.03;;
3443;SDS011;1736;52.068;6.968;2023-05-31T12:31:40;7.37;;;3.80;;
3443;SDS011;1736;52.068;6.968;2023-05-31T12:34:07;6.67;;;4.00;;
3443;SDS011;1736;52.068;6.968;2023-05-31T12:36:42;5.93;;;3.33;;
3443;SDS011;1736;52.068;6.968;2023-05-31T12:39:09;9.73;;;3.73;;
3443;SDS011;1736;52.068;6.968;2023-05-31T12:41:39;5.20;;;3.50;;
3443;SDS011;1736;52.068;6.968;2023-05-31T12:44:07;6.13;;;3.20;;
3443;SDS011;1736;52.068;6.968;2023-05-31T12:46:37;8.87;;;3.60;;
3443;SDS011;1736;52.068;6.968;2023-05-31T12:49:14;6.43;;;3.00;;
3443;SDS011;1736;52.068;6.968;2023-05-31T12:51:45;7.47;;;3.27;;
3443;SDS011;1736;52.068;6.968;2023-05-31T12:54:12;6.80;;;3.20;;
3443;SDS011;1736;52.068;6.968;2023-05-31T12:56:40;5.20;;;3.40;;
3443;SDS011;1736;52.068;6.968;2023-05-31T12:59:07;8.07;;;3.50;;
3443;SDS011;1736;52.068;6.968;2023-05-31T13:01:35;5.23;;;3.03;;
3443;SDS011;1736;52.068;6.968;2023-05-31T13:04:03;3.90;;;2.90;;
3443;SDS011;1736;52.068;6.968;2023-05-31T13:06:30;5.67;;;2.97;;
3443;SDS011;1736;52.068;6.968;2023-05-31T13:08:56;5.60;;;2.80;;
3443;SDS011;1736;52.068;6.968;2023-05-31T13:11:23;6.63;;;3.80;;
3443;SDS011;1736;52.068;6.968;2023-05-31T13:13:51;5.40;;;3.00;;
3443;SDS011;1736;52.068;6.968;2023-05-31T13:16:18;5.10;;;2.40;;
3443;SDS011;1736;52.068;6.968;2023-05-31T13:18:46;4.27;;;2.87;;
3443;SDS011;1736;52.068;6.968;2023-05-31T13:21:12;6.30;;;2.67;;
3443;SDS011;1736;52.068;6.968;2023-05-31T13:23:39;3.90;;;2.80;;
3443;SDS011;1736;52.068;6.968;2023-05-31T13:26:05;5.43;;;3.07;;
3443;SDS011;1736;52.068;6.968;2023-05-31T13:28:32;9.47;;;3.10;;
3443;SDS011;1736;52.068;6.968;2023-05-31T13:31:00;4.70;;;2.63;;
3443;SDS011;1736;52.068;6.968;2023-05-31T13:33:26;6.00;;;2.70;;
3443;SDS011;1736;52.068;6.968;2023-05-31T13:35:54;4.97;;;2.90;;
3443;SDS011;1736;52.068;6.968;2023-05-31T13:38:21;6.10;;;3.00;;
3443;SDS011;1736;52.068;6.968;2023-05-31T13:40:48;5.30;;;2.70;;
3443;SDS011;1736;52.068;6.968;2023-05-31T13:43:15;4.83;;;3.30;;
3443;SDS011;1736;52.068;6.968;2023-05-31T13:45:42;5.47;;;2.63;;
3443;SDS011;1736;52.068;6.968;2023-05-31T13:48:10;4.23;;;2.60;;
3443;SDS011;1736;52.068;6.968;2023-05-31T13:50:38;8.43;;;2.93;;
3443;SDS011;1736;52.068;6.968;2023-05-31T13:53:04;4.40;;;2.80;;
3443;SDS011;1736;52.068;6.968;2023-05-31T13:55:31;3.70;;;2.60;;
3443;SDS011;1736;52.068;6.968;2023-05-31T13:57:58;7.03;;;3.40;;
3443;SDS011;1736;52.068;6.968;2023-05-31T14:00:25;9.40;;;3.20;;
3443;SDS011;1736;52.068;6.968;2023-05-31T14:02:51;5.63;;;2.70;;
3443;SDS011;1736;52.068;6.968;2023-05-31T14:05:20;4.23;;;2.90;;
3443;SDS011;1736;52.068;6.968;2023-05-31T14:07:47;6.13;;;2.73;;
3443;SDS011;1736;52.068;6.968;2023-05-31T14:10:14;3.13;;;2.40;;
3443;SDS011;1736;52.068;6.968;2023-05-31T14:12:41;4.40;;;2.50;;
3443;SDS011;1736;52.068;6.968;2023-05-31T14:15:08;7.60;;;3.00;;
3443;SDS011;1736;52.068;6.968;2023-05-31T14:17:35;8.30;;;3.20;;
3443;SDS011;1736;52.068;6.968;2023-05-31T14:20:01;5.07;;;3.00;;
3443;SDS011;1736;52.068;6.968;2023-05-31T14:22:30;4.50;;;2.93;;
3443;SDS011;1736;52.068;6.968;2023-05-31T14:24:57;9.67;;;3.20;;
3443;SDS011;1736;52.068;6.968;2023-05-31T14:27:23;6.83;;;3.47;;
3443;SDS011;1736;52.068;6.968;2023-05-31T14:29:50;3.60;;;2.80;;
3443;SDS011;1736;52.068;6.968;2023-05-31T14:32:17;6.63;;;3.10;;
3443;SDS011;1736;52.068;6.968;2023-05-31T14:34:44;4.80;;;2.67;;
3443;SDS011;1736;52.068;6.968;2023-05-31T14:37:10;5.40;;;2.97;;
3443;SDS011;1736;52.068;6.968;2023-05-31T14:39:39;4.80;;;3.60;;
3443;SDS011;1736;52.068;6.968;2023-05-31T14:42:06;4.60;;;3.00;;
3443;SDS011;1736;52.068;6.968;2023-05-31T14:44:33;4.40;;;3.10;;
3443;SDS011;1736;52.068;6.968;2023-05-31T14:47:00;2.90;;;2.60;;
3443;SDS011;1736;52.068;6.968;2023-05-31T14:49:27;10.53;;;3.00;;
3443;SDS011;1736;52.068;6.968;2023-05-31T14:51:53;5.83;;;3.00;;
3443;SDS011;1736;52.068;6.968;2023-05-31T14:54:22;10.93;;;3.30;;
3443;SDS011;1736;52.068;6.968;2023-05-31T14:56:50;6.97;;;2.80;;
3443;SDS011;1736;52.068;6.968;2023-05-31T14:59:18;5.03;;;2.93;;
3443;SDS011;1736;52.068;6.968;2023-05-31T15:01:44;6.77;;;2.90;;
3443;SDS011;1736;52.068;6.968;2023-05-31T15:04:11;4.03;;;2.63;;
3443;SDS011;1736;52.068;6.968;2023-05-31T15:06:40;8.60;;;2.70;;
3443;SDS011;1736;52.068;6.968;2023-05-31T15:09:08;4.97;;;2.70;;